Buena Esperanza, Argentina
Current Conditions -  °F | °C
As of 5:00 PM on Saturday 25 Oct 2014 (Local Time) from SAOC Reporting Station
Clear Clear  
Wind Chill: 34°   Ceiling: Unl
Heat Index: 34°   Visibility: 6mi
Dew Point: 12°   Wind: 23mph
Humidity: 26%   Direction: 360°N
Pressure: 29.74"   Gusts: NA
Location:  34.75°S, 65.25°W
Report Text: SAOC 252000Z 36020KT CAVOK 34/12 Q1007
Loading
Personal Weather Stations






























Interactive Weather Map
Tropical Storm Tracking
New forecast layout! Learn more

10-Day Weather Forecast

Advertisements
Track Severe Weather on mobile